Terminal Aerodrome Forecast
Issued by NWS Sterling, VA

Current Version | Previous Version | Text Only | Print | Product List | Glossary Off
Versions: 1 2 3 4 5 6 7 8 9 10 11 12 13 14 15 16 17 18 19

000
FTUS41 KLWX 090500
TAFMRB
TAF
KMRB 090532Z 0906/1006 24004KT P6SM SCT070
     FM091000 VRB03KT P6SM SCT070
     FM091700 24007KT P6SM FEW050 SCT070
     FM100000 29005KT P6SM BKN050 BKN070
     FM100100 30004KT P6SM FEW050 SCT070=

USA.gov is the U.S. government's official web portal to all federal, state and local government web resources and services.